Belleair, Florida
Current Conditions -  °F | °C
As of 1:15 AM on Wednesday 26 Nov 2014 (Local Time) from KCLW Reporting Station
Moderate Rain Moderate Rain  
Wind Chill: 64°   Ceiling: 300
Heat Index: 64°   Visibility: 4mi
Dew Point: 63°   Wind: 10mph
Humidity: 94%   Direction: 330°NNW
Pressure: 29.88"   Gusts: 20mph
Location:  27.9445°N, 82.7883°W
Report Text: KCLW 260615Z AUTO 33009G17KT 4SM RA OVC003 18/17 A2988 RMK AO2 P0004
Loading
Personal Weather Stations






























Interactive Weather Map New forecast layout! Learn more

10-Day Weather Forecast

Advertisements
Track Severe Weather on mobile